Afrodite — CURM3 — position and weather

sailwx.info

Track history (hours):
 
Tides and Currents Weather Stations Pressure Air Temp Water Temp Dewpoint Dewpoint Depression Visibility Wind Speed Wind Dir Waves Ship Positions

Afrodite

Last reported at 2016-Sep-06 07:30 UTC. Time now 2016-Sep-30 08:21 UTC.
Position N 41°13' W 008°53'.
Warning: this ship's position is 24 days out of date.

Length 26 m.

Type: Fishing. MMSI: 263500170.

Date/timePositionNaut miles runAvg speedWind from/ knotsBaromVisibWave heightAir tempDewpointWater temp
2016-Sep-06 07:30N 41°13' W 008°53'1010.3
2016-Sep-06 06:33N 41°16' W 009°05'3 1.5
2016-Sep-06 04:32N 41°18' W 009°09'0 0.3
2016-Sep-06 03:32N 41°18' W 009°09'1 0.2
2016-Sep-06 01:08N 41°17' W 009°08'1 0.9
2016-Sep-05 23:32N 41°16' W 009°08'7 7.5
2016-Sep-05 22:33N 41°08' W 009°10'8 7.9
2016-Sep-05 21:33N 41°01' W 009°11'9 8.8
2016-Sep-05 20:33N 40°52' W 009°12'8 8.2
2016-Sep-05 19:33N 40°44' W 009°15'8 7.8
2016-Sep-05 18:33N 40°36' W 009°17'8 8.0
2016-Sep-05 17:32N 40°28' W 009°18'8 8.3
2016-Sep-05 16:33N 40°20' W 009°19'8 8.3
2016-Sep-05 15:33N 40°12' W 009°20'8 8.3
2016-Sep-05 14:33N 40°03' W 009°21'8 8.5
2016-Sep-05 13:33N 39°55' W 009°22'9 9.0
2016-Sep-05 12:33N 39°46' W 009°23'10 9.7
2016-Sep-05 11:33N 39°36' W 009°25'10 9.7
2016-Sep-05 10:33N 39°27' W 009°25'6 4.5
2016-Sep-05 09:15N 39°21' W 009°22'  
2016-Sep-02 23:15N 39°21' W 009°22'0 0.0
2016-Sep-02 22:29N 39°21' W 009°22'0 0.2
2016-Sep-02 21:27N 39°21' W 009°22'3 1.7
2016-Sep-02 19:32N 39°19' W 009°26'7 7.2
2016-Sep-02 18:33N 39°12' W 009°24'3 2.7
2016-Sep-02 17:33N 39°09' W 009°24'0 0.0
2016-Sep-02 16:33N 39°09' W 009°24'0 0.1
2016-Sep-02 15:32N 39°10' W 009°24'5 4.2
2016-Sep-02 14:22N 39°14' W 009°25'3 4.0
2016-Sep-02 13:33N 39°11' W 009°24'10 5.1
2016-Sep-02 11:32N 39°21' W 009°22'0 0.0
2016-Sep-01 17:03N 39°21' W 009°22'0 0.0
2016-Sep-01 16:32N 39°21' W 009°22'7 5.6
2016-Sep-01 15:22N 39°15' W 009°23'5 6.1
2016-Sep-01 14:33N 39°10' W 009°23'0 0.2
2016-Sep-01 13:33N 39°10' W 009°23'12 5.9
2016-Sep-01 11:33N 39°21' W 009°22'7 0.4
2016-Aug-31 20:21N 39°16' W 009°27'2 2.5
2016-Aug-31 19:33N 39°14' W 009°27'9 4.2
2016-Aug-31 17:32N 39°21' W 009°22'0 0.0
2016-Aug-31 16:33N 39°21' W 009°22'0 0.0
2016-Aug-31 15:28N 39°21' W 009°22'7 0.4
2016-Aug-30 21:03N 39°14' W 009°24'2 4.4
2016-Aug-30 20:33N 39°12' W 009°25'0 0.3
2016-Aug-30 19:31N 39°12' W 009°25'6 6.5
2016-Aug-30 18:33N 39°08' W 009°30'7 7.1
2016-Aug-30 17:33N 39°01' W 009°31'6 6.3
2016-Aug-30 16:33N 38°55' W 009°28'0 0.2
2016-Aug-30 15:34N 38°55' W 009°28'2 1.6
2016-Aug-30 14:33N 38°57' W 009°28'10 9.8
2016-Aug-30 13:33N 39°06' W 009°25'  
Track history (hours):
 
Tides and Currents Weather Stations Pressure Air Temp Water Temp Dewpoint Dewpoint Depression Visibility Wind Speed Wind Dir Waves Ship Positions

Afrodite

Last reported at 2016-Sep-06 07:30 UTC. Time now 2016-Sep-30 08:21 UTC.
Position N 41°13' W 008°53'.
Warning: this ship's position is 24 days out of date.

Length 26 m.

Type: Fishing. MMSI: 263500170.

Date/timePositionNaut miles runAvg speedWind from/ knotsBaromVisibWave heightAir tempDewpointWater temp
2016-Sep-06 07:30N 41°13' W 008°53'1010.3
2016-Sep-06 06:33N 41°16' W 009°05'3 1.5
2016-Sep-06 04:32N 41°18' W 009°09'0 0.3
2016-Sep-06 03:32N 41°18' W 009°09'1 0.2
2016-Sep-06 01:08N 41°17' W 009°08'1 0.9
2016-Sep-05 23:32N 41°16' W 009°08'7 7.5
2016-Sep-05 22:33N 41°08' W 009°10'8 7.9
2016-Sep-05 21:33N 41°01' W 009°11'9 8.8
2016-Sep-05 20:33N 40°52' W 009°12'8 8.2
2016-Sep-05 19:33N 40°44' W 009°15'8 7.8
2016-Sep-05 18:33N 40°36' W 009°17'8 8.0
2016-Sep-05 17:32N 40°28' W 009°18'8 8.3
2016-Sep-05 16:33N 40°20' W 009°19'8 8.3
2016-Sep-05 15:33N 40°12' W 009°20'8 8.3
2016-Sep-05 14:33N 40°03' W 009°21'8 8.5
2016-Sep-05 13:33N 39°55' W 009°22'9 9.0
2016-Sep-05 12:33N 39°46' W 009°23'10 9.7
2016-Sep-05 11:33N 39°36' W 009°25'10 9.7
2016-Sep-05 10:33N 39°27' W 009°25'6 4.5
2016-Sep-05 09:15N 39°21' W 009°22'  
2016-Sep-02 23:15N 39°21' W 009°22'0 0.0
2016-Sep-02 22:29N 39°21' W 009°22'0 0.2
2016-Sep-02 21:27N 39°21' W 009°22'3 1.7
2016-Sep-02 19:32N 39°19' W 009°26'7 7.2
2016-Sep-02 18:33N 39°12' W 009°24'3 2.7
2016-Sep-02 17:33N 39°09' W 009°24'0 0.0
2016-Sep-02 16:33N 39°09' W 009°24'0 0.1
2016-Sep-02 15:32N 39°10' W 009°24'5 4.2
2016-Sep-02 14:22N 39°14' W 009°25'3 4.0
2016-Sep-02 13:33N 39°11' W 009°24'10 5.1
2016-Sep-02 11:32N 39°21' W 009°22'0 0.0
2016-Sep-01 17:03N 39°21' W 009°22'0 0.0
2016-Sep-01 16:32N 39°21' W 009°22'7 5.6
2016-Sep-01 15:22N 39°15' W 009°23'5 6.1
2016-Sep-01 14:33N 39°10' W 009°23'0 0.2
2016-Sep-01 13:33N 39°10' W 009°23'12 5.9
2016-Sep-01 11:33N 39°21' W 009°22'7 0.4
2016-Aug-31 20:21N 39°16' W 009°27'2 2.5
2016-Aug-31 19:33N 39°14' W 009°27'9 4.2
2016-Aug-31 17:32N 39°21' W 009°22'0 0.0
2016-Aug-31 16:33N 39°21' W 009°22'0 0.0
2016-Aug-31 15:28N 39°21' W 009°22'7 0.4
2016-Aug-30 21:03N 39°14' W 009°24'2 4.4
2016-Aug-30 20:33N 39°12' W 009°25'0 0.3
2016-Aug-30 19:31N 39°12' W 009°25'6 6.5
2016-Aug-30 18:33N 39°08' W 009°30'7 7.1
2016-Aug-30 17:33N 39°01' W 009°31'6 6.3
2016-Aug-30 16:33N 38°55' W 009°28'0 0.2
2016-Aug-30 15:34N 38°55' W 009°28'2 1.6
2016-Aug-30 14:33N 38°57' W 009°28'10 9.8
2016-Aug-30 13:33N 39°06' W 009°25'  

Dump ship's entire track history